createdAt,value
2019-03-11T00:04:48.259Z,40.59
2019-03-11T00:09:52.353Z,40.62
2019-03-11T00:14:56.437Z,40.62
2019-03-11T00:20:00.559Z,40.24
2019-03-11T00:25:04.672Z,39.81
2019-03-11T00:30:09.185Z,39.81
2019-03-11T00:35:13.230Z,39.94
2019-03-11T00:40:17.521Z,40.88
2019-03-11T00:45:24.153Z,40.88
2019-03-11T00:50:27.368Z,40.27
2019-03-11T00:55:31.308Z,40.01
2019-03-11T01:00:36.091Z,39.86
2019-03-11T01:05:40.061Z,39.86
2019-03-11T01:10:44.411Z,40.69
2019-03-11T01:15:48.570Z,40.69
2019-03-11T01:20:52.970Z,40.61
2019-03-11T01:25:57.000Z,40.30
2019-03-11T01:31:01.145Z,40.11
2019-03-11T01:36:05.293Z,40.26
2019-03-11T01:41:09.292Z,40.65
2019-03-11T01:46:13.251Z,40.65
2019-03-11T01:51:17.213Z,40.96
2019-03-11T01:56:21.148Z,40.64
2019-03-11T02:01:25.189Z,40.53
2019-03-11T02:06:29.084Z,40.62
2019-03-11T02:11:33.024Z,40.62
2019-03-11T02:16:36.940Z,40.60
2019-03-11T02:21:40.850Z,40.79
2019-03-11T02:26:44.756Z,40.83
2019-03-11T02:31:48.725Z,40.91
2019-03-11T02:36:52.665Z,40.91
2019-03-11T02:41:56.548Z,41.05
2019-03-11T02:47:00.514Z,41.05
2019-03-11T02:52:04.386Z,40.91
2019-03-11T02:57:08.305Z,41.61
2019-03-11T03:02:35.469Z,41.66
2019-03-11T03:07:39.368Z,41.66
2019-03-11T03:12:43.262Z,41.49
2019-03-11T03:17:47.068Z,41.33
2019-03-11T03:22:50.867Z,41.33
2019-03-11T03:27:54.780Z,41.85
2019-03-11T03:32:58.700Z,41.85
2019-03-11T03:38:02.565Z,41.54
2019-03-11T03:43:06.527Z,41.53
2019-03-11T03:48:11.051Z,41.64
2019-03-11T03:53:15.107Z,41.57
2019-03-11T03:58:19.031Z,41.90
2019-03-11T04:03:22.979Z,42.18
2019-03-11T04:08:26.908Z,42.18
2019-03-11T04:13:30.727Z,41.98
2019-03-11T04:18:51.232Z,42.35
2019-03-11T04:23:55.070Z,42.35
2019-03-11T04:28:58.906Z,42.58
2019-03-11T04:34:02.733Z,42.13
2019-03-11T04:39:07.020Z,42.31
2019-03-11T04:44:10.808Z,42.70
2019-03-11T04:49:14.572Z,42.70
2019-03-11T04:54:18.458Z,42.70
2019-03-11T04:59:22.294Z,42.70
2019-03-11T05:04:26.164Z,43.08
2019-03-11T05:09:30.041Z,43.46
2019-03-11T05:14:33.942Z,43.57
2019-03-11T05:19:37.845Z,43.56
2019-03-11T05:24:41.761Z,43.56
2019-03-11T05:29:45.555Z,43.62
2019-03-11T05:34:49.395Z,43.68
2019-03-11T05:39:53.256Z,43.63
2019-03-11T05:44:57.053Z,43.63
2019-03-11T05:50:00.950Z,43.75
2019-03-11T05:55:05.052Z,43.56
2019-03-11T06:00:12.783Z,44.15
2019-03-11T06:05:16.658Z,44.09
2019-03-11T06:10:20.518Z,44.03
2019-03-11T06:15:24.401Z,44.13
2019-03-11T06:20:36.530Z,44.15
2019-03-11T06:25:40.369Z,44.12
2019-03-11T06:30:44.170Z,44.10
2019-03-11T06:35:48.020Z,43.79
2019-03-11T06:40:52.123Z,44.34
2019-03-11T06:45:55.953Z,43.75
2019-03-11T06:50:59.762Z,43.71
2019-03-11T06:56:03.567Z,43.26
2019-03-11T07:01:07.364Z,43.42
2019-03-11T07:06:11.173Z,43.61
2019-03-11T07:11:14.998Z,43.61
2019-03-11T07:16:18.815Z,43.09
2019-03-11T07:21:23.063Z,43.16
2019-03-11T07:26:26.845Z,43.48
2019-03-11T07:31:30.619Z,43.48
2019-03-11T07:36:34.410Z,43.69
2019-03-11T07:41:38.200Z,43.02
2019-03-11T07:46:41.986Z,43.02
2019-03-11T07:51:45.848Z,43.26
2019-03-11T07:56:49.623Z,43.15
2019-03-11T08:01:53.498Z,43.14
2019-03-11T08:06:57.279Z,43.69
2019-03-11T08:12:01.786Z,44.37
2019-03-11T08:17:05.722Z,44.81
2019-03-11T08:27:27.387Z,43.60
2019-03-11T08:39:02.336Z,43.46
2019-03-11T08:44:51.944Z,43.39
2019-03-11T08:49:57.971Z,43.90
2019-03-11T08:55:54.081Z,44.11
2019-03-11T09:01:11.136Z,44.11
2019-03-11T09:06:50.589Z,43.69
2019-03-11T09:49:26.186Z,43.42
2019-03-11T09:54:49.710Z,43.50
2019-03-11T09:59:54.893Z,43.66
2019-03-11T10:17:28.878Z,43.52
2019-03-11T10:28:21.567Z,43.37
2019-03-11T10:33:58.219Z,43.37
2019-03-11T10:39:05.237Z,43.77
2019-03-11T10:49:40.236Z,43.44
2019-03-11T10:54:46.189Z,44.18
2019-03-11T10:59:50.581Z,44.08
2019-03-11T11:04:56.847Z,43.92
2019-03-11T11:10:03.192Z,43.73
2019-03-11T11:20:47.716Z,43.41
2019-03-11T11:26:19.139Z,43.41
2019-03-11T11:31:23.624Z,43.71
2019-03-11T11:36:29.457Z,44.18
2019-03-11T11:41:33.257Z,43.92
2019-03-11T11:46:37.080Z,44.21
2019-03-11T11:51:40.904Z,44.21
2019-03-11T11:56:44.659Z,43.38
2019-03-11T12:02:03.664Z,43.07
2019-03-11T12:07:02.231Z,43.07
2019-03-11T12:12:06.322Z,42.81
2019-03-11T12:17:10.248Z,42.81
2019-03-11T12:22:14.013Z,42.86
2019-03-11T12:27:17.769Z,42.85
2019-03-11T12:32:21.797Z,42.91
2019-03-11T12:37:25.619Z,38.67
2019-03-11T12:42:29.398Z,36.89
2019-03-11T12:47:33.236Z,36.21
2019-03-11T12:52:36.990Z,33.59
2019-03-11T12:57:40.765Z,33.59
2019-03-11T13:02:44.567Z,32.98
2019-03-11T13:07:48.379Z,32.10
2019-03-11T13:12:52.245Z,32.50
2019-03-11T13:17:56.009Z,32.96
2019-03-11T13:22:59.925Z,33.98
2019-03-11T13:28:03.696Z,33.98
2019-03-11T13:33:07.491Z,36.26
2019-03-11T13:38:11.279Z,37.12
2019-03-11T13:43:15.076Z,37.12
2019-03-11T13:48:18.864Z,39.38
2019-03-11T13:53:22.728Z,38.90
2019-03-11T13:58:26.516Z,38.90
2019-03-11T14:03:30.322Z,39.58
2019-03-11T14:08:34.086Z,39.58
2019-03-11T14:13:37.980Z,34.76
2019-03-11T14:18:41.788Z,34.76
2019-03-11T14:23:45.557Z,37.03
2019-03-11T14:28:49.336Z,37.84
2019-03-11T14:33:53.132Z,38.38
2019-03-11T14:38:56.934Z,38.38
2019-03-11T14:44:00.753Z,37.57
2019-03-11T14:49:04.548Z,37.57
2019-03-11T14:54:08.358Z,38.33
2019-03-11T14:59:12.143Z,38.33
2019-03-11T15:04:15.913Z,38.38
2019-03-11T15:09:19.685Z,38.19
2019-03-11T15:14:23.500Z,38.19
2019-03-11T15:19:27.264Z,38.85
2019-03-11T15:24:31.085Z,38.57
2019-03-11T15:29:34.849Z,39.38
2019-03-11T15:34:38.629Z,39.11
2019-03-11T15:39:42.458Z,39.25
2019-03-11T15:44:46.236Z,39.42
2019-03-11T15:49:50.491Z,39.25
2019-03-11T15:54:54.543Z,39.67
2019-03-11T15:59:58.366Z,39.61
2019-03-11T16:05:02.444Z,40.09
2019-03-11T16:10:16.356Z,40.09
2019-03-11T16:15:13.214Z,39.49
2019-03-11T16:20:17.415Z,40.28
2019-03-11T16:25:21.214Z,40.28
2019-03-11T16:30:25.235Z,40.05
2019-03-11T16:35:29.405Z,39.94
2019-03-11T16:40:33.214Z,40.26
2019-03-11T16:45:36.979Z,40.26
2019-03-11T16:50:40.776Z,39.39
2019-03-11T16:55:45.383Z,40.43
2019-03-11T17:00:49.689Z,40.05
2019-03-11T17:05:53.582Z,40.26
2019-03-11T17:10:57.428Z,38.98
2019-03-11T17:16:01.198Z,39.48
2019-03-11T17:21:05.259Z,41.70
2019-03-11T17:26:09.091Z,40.95
2019-03-11T17:31:12.863Z,41.68
2019-03-11T17:36:16.638Z,41.68
2019-03-11T17:41:20.515Z,41.49
2019-03-11T17:46:24.351Z,42.07
2019-03-11T17:51:28.130Z,42.07
2019-03-11T17:56:31.942Z,41.29
2019-03-11T18:01:35.751Z,40.11
2019-03-11T18:06:39.539Z,40.11
2019-03-11T18:11:43.314Z,39.59
2019-03-11T18:16:47.093Z,39.13
2019-03-11T18:21:50.881Z,39.13
2019-03-11T18:26:54.679Z,39.18
2019-03-11T18:32:02.213Z,39.18
2019-03-11T18:37:04.190Z,39.36
2019-03-11T18:42:07.991Z,39.45
2019-03-11T18:47:11.765Z,39.31
2019-03-11T18:52:16.020Z,39.12
2019-03-11T18:57:19.943Z,39.06
2019-03-11T19:02:23.741Z,38.51
2019-03-11T19:07:27.674Z,38.40
2019-03-11T19:12:32.308Z,39.00
2019-03-11T19:17:36.149Z,39.09
2019-03-11T19:22:39.935Z,38.89
2019-03-11T19:27:43.763Z,38.98
2019-03-11T19:32:47.606Z,38.98
2019-03-11T19:37:51.506Z,38.65
2019-03-11T19:42:55.331Z,38.05
2019-03-11T19:47:59.167Z,38.32
2019-03-11T19:53:02.932Z,37.99
2019-03-11T19:58:06.888Z,37.99
2019-03-11T20:03:22.626Z,38.44
2019-03-11T20:08:16.262Z,38.36
2019-03-11T20:13:20.173Z,38.74
2019-03-11T20:18:23.999Z,38.61
2019-03-11T20:23:28.901Z,38.56
2019-03-11T20:28:32.710Z,38.56
2019-03-11T20:33:36.558Z,39.17
2019-03-11T20:38:42.775Z,38.64
2019-03-11T20:43:45.861Z,39.34
2019-03-11T20:48:49.793Z,39.49
2019-03-11T20:53:53.634Z,39.13
2019-03-11T20:58:57.395Z,39.42
2019-03-11T21:04:01.402Z,39.58
2019-03-11T21:09:07.558Z,39.87
2019-03-11T21:14:11.442Z,40.14
2019-03-11T21:19:15.359Z,40.14
2019-03-11T21:24:19.316Z,40.47
2019-03-11T21:29:23.213Z,40.47
2019-03-11T21:34:29.203Z,40.69
2019-03-11T21:39:33.106Z,40.92
2019-03-11T21:44:37.089Z,40.49
2019-03-11T21:49:41.005Z,40.81
2019-03-11T21:54:47.441Z,40.63
2019-03-11T21:59:50.644Z,40.41
2019-03-11T22:04:54.455Z,40.63
2019-03-11T22:09:58.373Z,40.82
2019-03-11T22:15:02.174Z,40.96
2019-03-11T22:20:06.947Z,40.96
2019-03-11T22:25:11.969Z,40.67
2019-03-11T22:30:19.662Z,41.30
2019-03-11T22:35:23.542Z,40.91
2019-03-11T22:40:27.380Z,41.91
2019-03-11T22:45:31.220Z,40.99
2019-03-11T22:50:35.003Z,40.99
2019-03-11T22:55:39.329Z,41.86
2019-03-11T23:00:59.940Z,41.78
2019-03-11T23:06:03.742Z,42.03
2019-03-11T23:11:07.537Z,41.81
2019-03-11T23:16:11.379Z,41.81
2019-03-11T23:21:15.171Z,42.18
2019-03-11T23:26:19.313Z,42.27
2019-03-11T23:31:23.172Z,42.27
2019-03-11T23:36:26.967Z,42.75
2019-03-11T23:41:30.811Z,42.75
2019-03-11T23:46:34.601Z,42.73
2019-03-11T23:51:38.400Z,42.74
2019-03-11T23:56:42.210Z,42.46
